Anthony, NM

7:59 PM MST on February 13, 2016 (GMT -0700)
MesoWest | | Change Station
CLOSE
Current Station
Personal Weather Station
Location: Santa Teresa, NM
Elevation: 4115 ft
Nearby Weather Stations

Elev 4115 ft 31.87 °N, 106.70 °W | Updated 31 minutes ago

Clear
Clear
59 °F
Feels Like 59 °F
N
6
Wind Variable Wind from WSW
Gusts 7.0 mph

Today
High -- | Low -- °F
--% Chance of Precip.
Yesterday
High -- | Low -- °F
Precip. -- in
Pressure 29.98 in
Visibility 7.0 miles
Clouds Clear
Dew Point 10 °F
Humidity 14%
Rainfall in
Snow Depth Not available.
6:51 AM 5:51 PM
Waxing Crescent, 37% visible
METAR KBIF 140158Z AUTO 28007KT 7SM CLR 18/M16 A3005 RMK AO2 SLP150 T01751158 $
Pressure 29.98 in
Visibility 7.0 miles
Clouds Clear
Dew Point 10 °F
Humidity 14%
Rainfall in
Snow Depth Not available.
6:51 AM 5:51 PM
Waxing Crescent, 37% visible
METAR KBIF 140158Z AUTO 28007KT 7SM CLR 18/M16 A3005 RMK AO2 SLP150 T01751158 $

10-Day Weather Forecast

Almanac

Astronomy

Feb. 13, 2016 Rise Set
Actual Time
Civil Twilight
Nautical Twilight
Astronomical Twilight
Moon
Length of Visible Light
Length of Day
Tomorrow will be .
, % of the Moon is Illuminated

Today's Extremes

State Highs State Lows

Community

WunderPhotos

Upload Photos

1,892,731 photos uploaded!

WunderBlog® & News

Nearby

Air Quality

  Air Quality AQ Index Pollutant
Not available.

Snow Depth

Station Depth Elevation

Earthquake Activity

City Distance Mag. Time & Date
Minimum magnitude displayed is 2.5.

Coastal Water Temperatures

Place Temperature

Stations

Nearby Weather Stations

Station Location Temp. Windchill Dew Point Humidity Wind Precip. Elev Updated Type
                   

Watches & Warnings

There are currently no watches in effect.